Time;durP1;ratioP1;P1;durP2;ratioP2;P2;SDS_P1;SDS_P2;PMS_P1;PMS_P2;Temp;Humidity;BMP_temperature;BMP_pressure;BME280_temperature;BME280_humidity;BME280_pressure;Samples;Min_cycle;Max_cycle;Signal;HPM_P1;HPM_P2
2022/04/01 00:00:11;;;;;;;0.70;0.70;;;12.50;46.00;;;;;;2251441;63;20215;-89
2022/04/01 00:02:37;;;;;;;0.65;0.65;;;12.50;46.00;;;;;;2252403;63;20593;-89
2022/04/01 00:05:04;;;;;;;0.68;0.60;;;12.50;46.50;;;;;;2251873;63;20627;-89
2022/04/01 00:07:30;;;;;;;1.38;0.75;;;12.50;46.10;;;;;;2252200;63;20285;-89
2022/04/01 00:09:56;;;;;;;1.30;0.85;;;12.50;46.10;;;;;;2252269;63;20220;-89
2022/04/01 00:12:22;;;;;;;1.52;0.80;;;12.40;46.10;;;;;;2251756;63;20254;-89
2022/04/01 00:14:48;;;;;;;1.27;0.80;;;12.40;46.20;;;;;;2252315;63;20357;-89
2022/04/01 00:17:14;;;;;;;0.60;0.60;;;12.40;46.10;;;;;;2251537;63;20357;-89
2022/04/01 00:19:40;;;;;;;0.60;0.60;;;12.40;46.20;;;;;;2252543;63;20466;-89
2022/04/01 00:22:07;;;;;;;1.02;0.80;;;12.40;46.20;;;;;;2251768;63;20253;-89
2022/04/01 00:24:33;;;;;;;0.80;0.80;;;12.30;46.30;;;;;;2252141;63;20284;-89
2022/04/01 00:26:59;;;;;;;1.33;0.80;;;12.30;46.10;;;;;;2252278;63;20279;-90
2022/04/01 00:29:26;;;;;;;0.60;0.60;;;12.30;46.30;;;;;;2252179;63;20240;-90
2022/04/01 00:31:58;;;;;;;0.85;0.70;;;12.30;46.30;;;;;;2252526;63;20244;-89
2022/04/01 00:34:33;;;;;;;1.00;0.88;;;12.30;46.40;;;;;;2251840;63;20302;-90
2022/04/01 00:37:01;;;;;;;1.45;0.80;;;12.20;46.00;;;;;;2252584;63;20705;-90
2022/04/01 00:39:29;;;;;;;0.73;0.73;;;12.20;46.40;;;;;;2251365;63;20212;-90
2022/04/01 00:41:57;;;;;;;1.20;1.00;;;12.20;46.40;;;;;;2252137;63;20726;-89
2022/04/01 00:44:24;;;;;;;1.27;0.70;;;12.20;46.60;;;;;;2251712;63;21050;-90
2022/04/01 00:46:53;;;;;;;1.70;0.88;;;12.10;46.50;;;;;;2251668;63;20759;-89
2022/04/01 00:49:20;;;;;;;1.00;0.75;;;12.20;46.50;;;;;;2252159;63;20204;-88
2022/04/01 00:51:48;;;;;;;0.70;0.68;;;12.20;46.60;;;;;;2251208;63;20242;-88
2022/04/01 00:54:14;;;;;;;0.85;0.60;;;12.10;47.30;;;;;;2252060;63;20896;-89
2022/04/01 00:56:40;;;;;;;1.55;0.85;;;12.10;45.80;;;;;;2251104;63;20964;-90
2022/04/01 00:59:08;;;;;;;0.73;0.73;;;12.10;46.50;;;;;;2251941;63;20358;-89
2022/04/01 01:01:35;;;;;;;0.70;0.70;;;12.10;46.50;;;;;;2251577;63;20242;-90
2022/04/01 01:04:03;;;;;;;2.80;1.00;;;12.10;46.60;;;;;;2251660;63;20381;-90
2022/04/01 01:06:31;;;;;;;0.77;0.77;;;12.00;46.50;;;;;;2251724;63;20469;-90
2022/04/01 01:08:58;;;;;;;1.05;0.70;;;12.00;46.50;;;;;;2251272;63;20244;-91
2022/04/01 01:11:25;;;;;;;0.57;0.57;;;12.00;46.20;;;;;;2252539;63;20633;-90
2022/04/01 01:13:53;;;;;;;0.70;0.70;;;12.10;46.40;;;;;;2251826;63;20612;-89
2022/04/01 01:16:19;;;;;;;0.77;0.70;;;12.00;46.60;;;;;;2252500;63;20352;-90
2022/04/01 01:18:58;;;;;;;1.23;0.98;;;12.00;46.50;;;;;;2251950;63;20379;-90
2022/04/01 01:21:23;;;;;;;1.13;0.70;;;12.00;46.50;;;;;;2252221;63;20730;-91
2022/04/01 01:23:51;;;;;;;0.70;0.70;;;12.00;46.30;;;;;;2252213;63;20265;-91
2022/04/01 01:26:16;;;;;;;1.30;0.70;;;12.00;46.50;;;;;;2252074;63;20324;-90
2022/04/01 01:28:43;;;;;;;0.60;0.60;;;12.00;46.50;;;;;;2252490;63;20204;-91
2022/04/01 01:31:08;;;;;;;0.80;0.80;;;12.00;46.60;;;;;;2251833;63;20303;-90
2022/04/01 01:33:35;;;;;;;1.17;0.75;;;11.90;46.60;;;;;;2245382;63;20353;-91
2022/04/01 01:36:00;;;;;;;1.17;0.80;;;11.90;46.60;;;;;;2251846;63;20335;-90
2022/04/01 01:38:26;;;;;;;0.70;0.70;;;11.90;46.60;;;;;;2252029;63;20341;-90
2022/04/01 01:40:53;;;;;;;1.00;0.70;;;11.90;46.50;;;;;;2252374;63;20240;-91
2022/04/01 01:43:20;;;;;;;1.02;0.77;;;11.90;46.60;;;;;;2252087;63;20631;-91
2022/04/01 01:45:46;;;;;;;0.80;0.63;;;11.90;46.60;;;;;;2252353;63;20632;-91
2022/04/01 01:48:12;;;;;;;1.92;0.88;;;11.90;46.60;;;;;;2251591;63;20802;-91
2022/04/01 01:56:07;;;;;;;0.77;0.70;;;11.90;46.50;;;;;;2243956;63;20273;-90
2022/04/01 01:58:34;;;;;;;0.70;0.70;;;11.80;46.60;;;;;;2244512;63;20245;-91
2022/04/01 02:01:00;;;;;;;0.80;0.80;;;11.80;46.50;;;;;;2243789;63;20331;-92
2022/04/01 02:03:26;;;;;;;0.63;0.63;;;11.90;46.20;;;;;;2243969;63;20263;-90
2022/04/01 02:05:52;;;;;;;0.95;0.70;;;11.80;46.40;;;;;;2243407;63;20230;-91
2022/04/01 02:08:17;;;;;;;0.90;0.80;;;11.80;46.50;;;;;;2244424;63;20230;-91
2022/04/01 02:10:43;;;;;;;1.30;0.93;;;11.80;46.50;;;;;;2243680;63;20370;-90
2022/04/01 02:13:09;;;;;;;1.00;0.90;;;11.80;46.30;;;;;;2236931;63;20216;-90
2022/04/01 02:15:35;;;;;;;0.65;0.65;;;11.80;46.40;;;;;;2243835;63;20315;-90
2022/04/01 02:18:02;;;;;;;1.08;0.70;;;11.80;46.30;;;;;;2243402;63;20370;-91
2022/04/01 02:20:31;;;;;;;0.73;0.73;;;11.80;46.40;;;;;;2244386;63;20225;-91
2022/04/01 02:22:58;;;;;;;1.85;1.20;;;11.70;46.50;;;;;;2246097;63;20249;-91
2022/04/01 02:25:25;;;;;;;0.90;0.73;;;11.70;46.60;;;;;;2252394;63;20237;-91
2022/04/01 02:27:51;;;;;;;1.10;0.93;;;11.70;46.20;;;;;;2251595;63;20682;-91
2022/04/01 02:30:16;;;;;;;0.98;0.85;;;11.70;46.10;;;;;;2252044;63;20215;-90
2022/04/01 02:32:42;;;;;;;1.15;0.80;;;11.70;46.00;;;;;;2252118;63;20222;-91
2022/04/01 02:35:11;;;;;;;1.02;0.80;;;11.70;46.10;;;;;;2251646;63;20406;-91
2022/04/01 02:37:39;;;;;;;1.17;0.70;;;11.70;46.30;;;;;;2252130;63;20392;-90
2022/04/01 02:40:06;;;;;;;0.60;0.60;;;11.70;46.40;;;;;;2251149;63;20942;-90
2022/04/01 02:42:32;;;;;;;0.75;0.65;;;11.80;46.30;;;;;;2252190;63;20374;-91
2022/04/01 02:44:58;;;;;;;0.73;0.70;;;11.70;46.10;;;;;;2251551;63;20208;-90
2022/04/01 02:47:27;;;;;;;0.90;0.70;;;11.70;45.90;;;;;;2251799;63;20330;-89
2022/04/01 02:49:54;;;;;;;1.10;0.80;;;11.70;46.50;;;;;;2251338;63;20212;-90
2022/04/01 02:52:20;;;;;;;0.73;0.73;;;11.70;46.10;;;;;;2251349;63;20240;-89
2022/04/01 02:54:46;;;;;;;1.83;0.82;;;11.70;46.30;;;;;;2251749;63;20267;-90
2022/04/01 02:57:13;;;;;;;0.80;0.80;;;11.60;46.40;;;;;;2251002;63;20238;-90
2022/04/01 02:59:39;;;;;;;1.33;0.60;;;11.60;46.50;;;;;;2251929;63;20223;-90
2022/04/01 03:02:05;;;;;;;0.63;0.63;;;11.60;46.50;;;;;;2243522;63;20240;-90
2022/04/01 03:04:31;;;;;;;0.90;0.80;;;11.60;46.50;;;;;;2251698;63;20317;-89
2022/04/01 03:06:57;;;;;;;0.70;0.60;;;11.70;46.50;;;;;;2251341;63;20789;-89
2022/04/01 03:09:23;;;;;;;0.80;0.70;;;11.70;46.80;;;;;;2251241;63;20707;-90
2022/04/01 03:11:49;;;;;;;1.88;0.80;;;11.70;46.90;;;;;;2251646;63;20216;-90
2022/04/01 03:14:15;;;;;;;1.08;0.70;;;11.70;46.80;;;;;;2250754;63;20192;-91
2022/04/01 03:16:41;;;;;;;1.10;0.90;;;11.80;46.90;;;;;;2251515;63;20196;-90
2022/04/01 03:19:10;;;;;;;0.85;0.60;;;11.90;47.10;;;;;;2242437;63;20213;-90
2022/04/01 03:21:39;;;;;;;1.25;0.70;;;12.00;47.00;;;;;;2251842;63;20617;-91
2022/04/01 03:24:06;;;;;;;0.87;0.70;;;12.10;47.00;;;;;;2250914;63;20220;-90
2022/04/01 03:26:34;;;;;;;1.15;0.65;;;;;;;;;;2251054;63;20388;-89
2022/04/01 03:28:59;;;;;;;0.73;0.70;;;12.20;46.30;;;;;;2251108;63;20390;-89
2022/04/01 03:31:26;;;;;;;1.60;0.80;;;12.30;46.60;;;;;;2251721;63;20317;-90
2022/04/01 03:33:51;;;;;;;1.02;0.70;;;12.40;46.50;;;;;;2252385;63;20241;-90
2022/04/01 03:36:18;;;;;;;0.68;0.68;;;12.50;46.40;;;;;;2251809;63;20208;-89
2022/04/01 03:38:44;;;;;;;0.77;0.60;;;12.60;46.10;;;;;;2252590;63;20729;-90
2022/04/01 03:41:11;;;;;;;0.93;0.77;;;12.60;45.90;;;;;;2252222;63;20220;-90
2022/04/01 03:43:37;;;;;;;0.77;0.60;;;12.70;45.80;;;;;;2252746;63;20650;-90
2022/04/01 03:46:11;;;;;;;1.05;0.60;;;12.70;45.80;;;;;;2252460;63;20330;-91
2022/04/01 03:48:39;;;;;;;1.15;0.80;;;12.80;45.70;;;;;;2249854;63;20423;-90
2022/04/01 03:51:05;;;;;;;0.85;0.70;;;12.80;45.50;;;;;;2252667;63;20218;-89
2022/04/01 03:53:33;;;;;;;0.60;0.60;;;12.90;45.50;;;;;;2251680;63;20224;-89
2022/04/01 03:56:00;;;;;;;1.05;0.70;;;13.00;45.90;;;;;;2246340;63;20270;-90
2022/04/01 03:58:32;;;;;;;1.13;0.70;;;13.00;45.00;;;;;;2251958;63;20319;-90
2022/04/01 04:01:00;;;;;;;1.35;0.70;;;13.10;44.80;;;;;;2252168;63;20318;-89
2022/04/01 04:03:27;;;;;;;0.90;0.70;;;13.10;45.00;;;;;;2244591;63;20224;-90
2022/04/01 04:05:53;;;;;;;0.70;0.70;;;13.10;45.00;;;;;;2251793;63;20232;-91
2022/04/01 04:08:22;;;;;;;1.13;0.80;;;13.20;44.70;;;;;;2252128;63;20768;-89
2022/04/01 04:10:49;;;;;;;1.67;0.90;;;13.20;44.80;;;;;;2251698;63;20265;-91
2022/04/01 04:13:17;;;;;;;0.60;0.60;;;13.30;44.70;;;;;;2252455;63;20220;-90
2022/04/01 04:16:00;;;;;;;0.70;0.70;;;13.30;44.90;;;;;;2251388;63;20253;-90
2022/04/01 04:18:43;;;;;;;1.17;0.70;;;13.30;44.50;;;;;;2252174;63;20705;-90
2022/04/01 04:21:10;;;;;;;0.90;0.70;;;13.40;44.60;;;;;;2245009;63;20245;-90
2022/04/01 04:23:46;;;;;;;0.70;0.70;;;13.50;44.30;;;;;;2251301;63;20197;-90
2022/04/01 04:26:15;;;;;;;1.98;0.90;;;13.50;44.50;;;;;;2252536;63;20342;-90
2022/04/01 04:28:49;;;;;;;1.92;0.65;;;13.50;44.50;;;;;;2251267;63;20823;-90
2022/04/01 04:31:23;;;;;;;1.23;0.93;;;13.50;44.20;;;;;;2252223;63;20237;-90
2022/04/01 04:33:52;;;;;;;1.15;0.68;;;13.60;44.30;;;;;;2251808;63;20220;-89
2022/04/01 04:36:24;;;;;;;2.05;0.68;;;13.60;44.20;;;;;;2251690;63;20641;-89
2022/04/01 04:38:54;;;;;;;1.38;0.65;;;13.60;44.30;;;;;;2252190;63;20232;-89
2022/04/01 04:41:20;;;;;;;;;;;13.60;43.90;;;;;;2251549;63;20290;-90
2022/04/01 04:43:47;;;;;;;2.35;0.95;;;13.70;44.20;;;;;;2252192;63;20135;-90
2022/04/01 04:46:20;;;;;;;1.33;0.77;;;13.70;44.10;;;;;;2251416;63;20697;-90
2022/04/01 04:48:47;;;;;;;0.77;0.70;;;13.80;44.20;;;;;;2252086;63;20253;-90
2022/04/01 04:51:15;;;;;;;1.95;0.90;;;13.80;44.10;;;;;;2246863;63;20294;-90
2022/04/01 04:53:43;;;;;;;1.98;0.80;;;13.80;44.10;;;;;;2251271;63;20376;-90
2022/04/01 04:56:09;;;;;;;1.20;0.80;;;13.80;44.00;;;;;;2251859;63;20270;-89
2022/04/01 04:58:39;;;;;;;0.77;0.77;;;13.90;44.10;;;;;;2250973;63;20753;-90
2022/04/01 05:01:27;;;;;;;0.60;0.60;;;13.90;43.80;;;;;;2251974;63;20220;-88
2022/04/01 05:04:05;;;;;;;1.43;0.80;;;13.90;43.90;;;;;;2250454;63;20232;-88
2022/04/01 05:06:43;;;;;;;0.82;0.50;;;14.00;44.50;;;;;;2244236;63;20360;-88
2022/04/01 05:09:29;;;;;;;1.58;0.75;;;14.00;43.80;;;;;;2251292;63;20212;-88
2022/04/01 05:11:56;;;;;;;0.80;0.80;;;14.00;43.80;;;;;;2250965;63;20233;-90
2022/04/01 05:14:31;;;;;;;1.65;0.70;;;14.00;43.70;;;;;;2252197;63;20204;-90
2022/04/01 05:17:03;;;;;;;0.88;0.68;;;14.00;43.50;;;;;;2251529;63;20216;-90
2022/04/01 05:19:31;;;;;;;1.63;0.73;;;14.00;43.50;;;;;;2251551;63;20357;-91
2022/04/01 05:22:09;;;;;;;1.08;0.80;;;13.90;43.60;;;;;;2251998;63;20237;-90
2022/04/01 05:24:38;;;;;;;1.17;0.80;;;14.00;43.50;;;;;;2250952;63;20223;-89
2022/04/01 05:27:07;;;;;;;0.60;0.60;;;14.00;43.60;;;;;;2251651;63;20236;-89
2022/04/01 05:29:42;;;;;;;0.98;0.73;;;14.00;43.60;;;;;;2251030;63;20228;-89
2022/04/01 05:32:13;;;;;;;1.08;0.80;;;14.00;43.60;;;;;;2251346;63;20408;-87
2022/04/01 05:34:45;;;;;;;0.82;0.82;;;14.00;43.10;;;;;;2251177;63;20228;-87
2022/04/01 05:37:13;;;;;;;0.75;0.73;;;14.00;43.30;;;;;;2250681;63;20245;-88
2022/04/01 05:39:41;;;;;;;1.05;0.70;;;14.10;43.40;;;;;;2251842;63;20211;-88
2022/04/01 05:42:07;;;;;;;1.27;0.70;;;14.00;43.40;;;;;;2254579;63;20255;-88
2022/04/01 05:44:35;;;;;;;1.00;0.70;;;14.10;43.40;;;;;;2255347;63;20723;-88
2022/04/01 05:47:03;;;;;;;1.15;0.70;;;14.10;43.20;;;;;;2253828;63;20792;-88
2022/04/01 05:49:29;;;;;;;0.77;0.77;;;14.10;43.20;;;;;;2254990;63;20300;-88
2022/04/01 05:51:56;;;;;;;1.05;0.63;;;14.10;43.00;;;;;;2252531;63;20348;-88
2022/04/01 05:54:25;;;;;;;0.60;0.60;;;14.20;43.30;;;;;;2249942;63;20249;-88
2022/04/01 05:56:51;;;;;;;0.80;0.60;;;14.20;43.10;;;;;;2251204;63;20368;-87
2022/04/01 05:59:19;;;;;;;2.17;0.90;;;14.20;43.10;;;;;;2250421;63;20311;-88
2022/04/01 06:02:00;;;;;;;1.13;0.70;;;14.20;43.10;;;;;;2249224;63;20246;-86
2022/04/01 06:04:29;;;;;;;1.10;0.80;;;14.20;42.90;;;;;;2250833;63;20388;-87
2022/04/01 06:07:14;;;;;;;0.73;0.67;;;14.20;42.90;;;;;;2249514;63;20336;-86
2022/04/01 06:09:55;;;;;;;1.42;0.70;;;14.20;43.00;;;;;;2250384;63;20241;-86
2022/04/01 06:12:52;;;;;;;0.93;0.50;;;14.20;43.00;;;;;;2250253;63;20440;-87
2022/04/01 06:15:24;;;;;;;1.38;0.80;;;14.20;42.90;;;;;;2251093;63;20242;-86
2022/04/01 06:18:32;;;;;;;1.38;0.70;;;14.10;42.70;;;;;;2250875;63;20249;-87
2022/04/01 06:21:03;;;;;;;0.53;0.43;;;14.10;42.70;;;;;;2250452;63;20245;-86
2022/04/01 06:24:08;;;;;;;1.00;0.60;;;14.10;42.70;;;;;;2251256;63;20298;-86
2022/04/01 06:26:51;;;;;;;1.27;0.60;;;14.10;42.60;;;;;;2250896;63;20243;-87
2022/04/01 06:29:40;;;;;;;0.93;0.80;;;14.00;42.60;;;;;;2250746;63;20374;-86
2022/04/01 06:32:26;;;;;;;0.60;0.50;;;14.10;42.60;;;;;;2255733;63;20347;-87
2022/04/01 06:35:26;;;;;;;0.60;0.55;;;14.00;42.30;;;;;;2257079;63;20243;-85
2022/04/01 06:37:59;;;;;;;;;;;14.00;42.20;;;;;;2257762;63;20223;-86
2022/04/01 06:40:29;;;;;;;1.13;0.77;;;13.90;42.30;;;;;;2257941;63;20083;-85
2022/04/01 06:42:56;;;;;;;0.93;0.55;;;13.90;42.20;;;;;;2256792;63;20262;-85
2022/04/01 06:45:22;;;;;;;0.73;0.60;;;13.90;41.90;;;;;;2258097;63;20241;-85
2022/04/01 06:47:48;;;;;;;1.58;0.65;;;13.80;42.40;;;;;;2257718;63;20721;-86
2022/04/01 06:50:16;;;;;;;1.15;0.60;;;13.80;42.20;;;;;;2257625;63;20241;-86
2022/04/01 06:52:44;;;;;;;0.60;0.60;;;13.80;42.10;;;;;;2248430;63;20319;-85
2022/04/01 06:55:11;;;;;;;0.65;0.50;;;13.80;42.30;;;;;;2249851;63;20960;-86
2022/04/01 06:57:37;;;;;;;0.70;0.57;;;13.80;42.40;;;;;;2258057;63;20752;-86
2022/04/01 07:00:05;;;;;;;1.38;0.57;;;13.80;42.40;;;;;;2257040;63;20231;-87
2022/04/01 07:02:31;;;;;;;0.63;0.63;;;13.80;42.40;;;;;;2257587;63;20915;-85
2022/04/01 07:04:57;;;;;;;1.35;0.50;;;13.80;42.30;;;;;;2257838;63;20380;-85
2022/04/01 07:07:23;;;;;;;0.50;0.50;;;13.80;42.30;;;;;;2259012;63;20404;-85
2022/04/01 07:09:49;;;;;;;0.60;0.60;;;13.70;42.00;;;;;;2255366;63;20200;-84
2022/04/01 07:12:16;;;;;;;1.17;0.77;;;13.70;41.90;;;;;;2258467;63;20223;-85
2022/04/01 07:14:42;;;;;;;0.50;0.50;;;13.70;42.30;;;;;;2257495;63;20255;-85
2022/04/01 07:17:08;;;;;;;1.50;0.60;;;13.70;42.20;;;;;;2258359;63;20227;-84
2022/04/01 07:19:34;;;;;;;2.15;0.50;;;13.60;41.90;;;;;;2259191;63;20249;-85
2022/04/01 07:22:00;;;;;;;0.88;0.65;;;13.60;42.10;;;;;;2257814;63;20232;-85
2022/04/01 07:24:27;;;;;;;0.65;0.60;;;13.60;42.10;;;;;;2256399;63;20284;-85
2022/04/01 07:26:52;;;;;;;0.73;0.73;;;13.50;42.00;;;;;;2258961;63;20758;-85
2022/04/01 07:29:18;;;;;;;1.10;0.70;;;13.50;42.00;;;;;;2258968;63;20406;-85
2022/04/01 07:34:38;;;;;;;0.80;0.60;;;13.50;42.10;;;;;;2256838;63;20214;-84
2022/04/01 07:37:05;;;;;;;1.27;0.70;;;13.50;42.30;;;;;;2259152;63;20239;-86
2022/04/01 07:39:31;;;;;;;0.75;0.60;;;13.40;42.20;;;;;;2258467;63;20248;-85
2022/04/01 07:41:57;;;;;;;0.82;0.65;;;13.40;42.20;;;;;;2256726;63;20680;-85
2022/04/01 07:44:23;;;;;;;0.50;0.50;;;13.40;42.30;;;;;;2258822;63;20703;-86
2022/04/01 07:46:50;;;;;;;1.52;0.70;;;13.40;42.30;;;;;;2258660;63;20400;-85
2022/04/01 07:49:18;;;;;;;0.88;0.70;;;13.40;42.40;;;;;;2254188;63;20324;-85
2022/04/01 07:51:44;;;;;;;0.60;0.55;;;13.30;43.10;;;;;;2257463;63;20219;-86
2022/04/01 07:54:12;;;;;;;0.60;0.60;;;13.30;42.50;;;;;;2258244;63;20257;-85
2022/04/01 07:56:40;;;;;;;0.82;0.73;;;13.30;42.60;;;;;;2258496;63;20783;-86
2022/04/01 07:59:14;;;;;;;0.63;0.50;;;13.30;42.60;;;;;;2259942;63;20714;-85
2022/04/01 08:01:40;;;;;;;0.65;0.60;;;13.30;42.70;;;;;;2259566;63;20227;-85
2022/04/01 08:04:06;;;;;;;0.60;0.60;;;13.30;42.70;;;;;;2259688;63;20320;-85
2022/04/01 08:06:32;;;;;;;0.60;0.60;;;13.20;42.60;;;;;;2259900;63;20233;-85
2022/04/01 08:08:59;;;;;;;0.65;0.65;;;13.20;42.80;;;;;;2259194;63;20219;-85
2022/04/01 08:11:25;;;;;;;0.60;0.60;;;13.20;42.80;;;;;;2260144;63;20714;-86
2022/04/01 08:13:55;;;;;;;1.60;0.80;;;13.20;42.80;;;;;;2259161;63;20498;-86
2022/04/01 08:16:22;;;;;;;0.95;0.70;;;13.20;42.90;;;;;;2259537;63;20223;-86
2022/04/01 08:18:49;;;;;;;0.93;0.70;;;13.20;42.90;;;;;;2259404;63;20223;-86
2022/04/01 08:21:15;;;;;;;1.00;0.80;;;13.20;42.90;;;;;;2259734;63;20709;-86
2022/04/01 08:23:42;;;;;;;0.90;0.77;;;13.20;42.90;;;;;;2259745;63;20662;-87
2022/04/01 08:26:08;;;;;;;0.82;0.82;;;13.10;42.90;;;;;;2256866;63;20326;-86
2022/04/01 08:28:35;;;;;;;0.90;0.80;;;13.00;42.80;;;;;;2251653;63;20364;-86
2022/04/01 08:31:01;;;;;;;1.55;1.00;;;13.00;43.00;;;;;;2257027;63;20416;-86
2022/04/01 08:33:27;;;;;;;0.98;0.80;;;12.90;43.00;;;;;;2256154;63;20215;-87
2022/04/01 08:35:56;;;;;;;0.95;0.80;;;12.90;43.20;;;;;;2258130;63;20400;-87
2022/04/01 08:38:22;;;;;;;1.00;0.80;;;12.80;43.30;;;;;;2258532;63;20207;-87
2022/04/01 08:40:48;;;;;;;1.02;0.85;;;12.80;43.30;;;;;;2245998;63;20731;-87
2022/04/01 08:43:31;;;;;;;0.82;0.82;;;12.80;43.50;;;;;;2258309;63;20258;-87
2022/04/01 08:46:04;;;;;;;1.23;0.80;;;12.80;43.60;;;;;;2256799;63;20239;-86
2022/04/01 08:48:31;;;;;;;1.50;1.08;;;12.70;43.60;;;;;;2256242;63;20331;-87
2022/04/01 08:50:57;;;;;;;2.63;1.00;;;12.70;43.70;;;;;;2257657;63;20224;-87
2022/04/01 08:53:23;;;;;;;0.77;0.77;;;12.70;43.50;;;;;;2258010;63;20230;-87
2022/04/01 08:55:55;;;;;;;1.10;1.00;;;12.60;43.60;;;;;;2251202;63;20287;-86
2022/04/01 08:58:24;;;;;;;1.30;1.00;;;12.60;43.80;;;;;;2258511;63;20220;-87
2022/04/01 09:00:51;;;;;;;1.98;1.02;;;12.60;43.80;;;;;;2256717;63;20286;-85
2022/04/01 09:03:20;;;;;;;2.83;1.20;;;12.60;43.90;;;;;;2249591;63;20302;-86
2022/04/01 09:05:51;;;;;;;0.90;0.90;;;12.60;43.60;;;;;;2250001;63;20228;-85
2022/04/01 09:08:29;;;;;;;1.95;1.30;;;12.70;43.80;;;;;;2248207;63;20227;-86
2022/04/01 09:11:01;;;;;;;1.17;1.08;;;12.80;43.70;;;;;;2254959;63;20216;-86
2022/04/01 09:13:31;;;;;;;1.42;1.33;;;12.70;43.40;;;;;;2257963;63;20304;-85
2022/04/01 09:15:57;;;;;;;;;;;12.70;43.60;;;;;;2256801;63;20247;-86
2022/04/01 09:18:34;;;;;;;1.15;1.05;;;12.80;43.70;;;;;;2257422;63;20236;-86
2022/04/01 09:21:01;;;;;;;2.35;1.60;;;12.80;43.50;;;;;;2256077;63;20285;-86
2022/04/01 09:23:27;;;;;;;1.48;1.13;;;12.90;43.30;;;;;;2255383;63;20333;-86
2022/04/01 09:25:53;;;;;;;1.35;1.20;;;13.00;43.30;;;;;;2257182;63;20481;-86
2022/04/01 09:28:27;;;;;;;1.55;1.40;;;13.00;43.20;;;;;;2258106;63;20241;-86
2022/04/01 09:30:57;;;;;;;1.98;1.50;;;12.90;43.00;;;;;;2255218;63;20743;-86
2022/04/01 09:33:28;;;;;;;2.03;1.67;;;12.80;43.20;;;;;;2256889;63;20235;-87
2022/04/01 09:36:03;;;;;;;1.73;1.40;;;12.80;43.30;;;;;;2257703;63;20239;-87
2022/04/01 09:38:28;;;;;;;1.70;1.50;;;12.80;43.50;;;;;;2253152;63;20240;-86
2022/04/01 09:40:54;;;;;;;2.28;1.60;;;12.70;43.50;;;;;;2256053;63;20219;-86
2022/04/01 09:43:24;;;;;;;1.77;1.50;;;12.70;43.40;;;;;;2258411;63;20441;-86
2022/04/01 09:45:50;;;;;;;1.50;1.40;;;12.70;43.70;;;;;;2258437;63;20231;-86
2022/04/01 09:48:19;;;;;;;3.85;1.77;;;12.70;43.60;;;;;;2256153;63;20322;-85
2022/04/01 09:50:56;;;;;;;2.33;1.60;;;12.70;43.80;;;;;;2257403;63;20315;-88
2022/04/01 09:53:25;;;;;;;1.88;1.50;;;12.70;43.60;;;;;;2251585;63;20323;-86
2022/04/01 09:55:52;;;;;;;1.65;1.50;;;12.70;43.80;;;;;;2255175;63;20227;-86
2022/04/01 09:58:21;;;;;;;2.67;1.70;;;12.80;43.70;;;;;;2256403;63;20223;-86
2022/04/01 10:00:48;;;;;;;2.40;1.80;;;12.80;43.90;;;;;;2253948;63;20252;-85
2022/04/01 10:03:15;;;;;;;2.58;2.08;;;12.90;43.80;;;;;;2256634;63;20611;-86
2022/04/01 10:05:42;;;;;;;1.92;1.83;;;13.00;43.90;;;;;;2258514;63;20695;-86
2022/04/01 10:08:10;;;;;;;2.33;1.70;;;13.10;44.10;;;;;;2259266;63;20250;-87
2022/04/01 10:10:38;;;;;;;2.47;1.80;;;13.20;43.90;;;;;;2258470;63;20358;-87
2022/04/01 10:13:09;;;;;;;2.25;1.70;;;13.30;43.90;;;;;;2254282;63;20271;-86
2022/04/01 10:15:36;;;;;;;2.30;1.88;;;13.30;43.80;;;;;;2250724;63;20369;-87
2022/04/01 10:18:03;;;;;;;1.75;1.65;;;13.40;43.90;;;;;;2243859;63;20699;-86
2022/04/01 10:20:38;;;;;;;1.92;1.75;;;13.50;43.70;;;;;;2251282;63;20236;-86
2022/04/01 10:23:07;;;;;;;2.92;1.73;;;13.50;43.50;;;;;;2250708;63;20318;-86
2022/04/01 10:25:51;;;;;;;2.10;1.75;;;13.60;43.40;;;;;;2251257;63;20253;-86
2022/04/01 10:28:19;;;;;;;1.98;1.80;;;13.60;43.30;;;;;;2250582;63;20719;-86
2022/04/01 10:30:56;;;;;;;2.35;1.98;;;13.60;43.30;;;;;;2243943;63;20212;-86
2022/04/01 10:33:25;;;;;;;2.30;1.90;;;13.60;43.10;;;;;;2250956;63;20212;-86
2022/04/01 10:35:51;;;;;;;2.60;2.10;;;13.70;43.10;;;;;;2250814;63;20212;-86
2022/04/01 10:38:20;;;;;;;3.17;2.33;;;13.70;43.10;;;;;;2251055;63;20220;-86
2022/04/01 10:40:49;;;;;;;2.00;1.80;;;13.70;43.10;;;;;;2250135;63;20318;-86
2022/04/01 10:43:19;;;;;;;2.72;2.22;;;13.70;43.00;;;;;;2251116;63;21199;-86
2022/04/01 10:46:08;;;;;;;2.75;2.10;;;13.80;42.80;;;;;;2250458;63;20234;-86
2022/04/01 10:51:44;;;;;;;2.20;2.00;;;13.80;42.60;;;;;;2251385;63;20334;-86
2022/04/01 10:54:12;;;;;;;2.38;2.13;;;13.80;42.60;;;;;;2243094;63;20232;-86
2022/04/01 10:56:39;;;;;;;3.35;2.13;;;13.90;42.50;;;;;;2251207;63;20234;-86
2022/04/01 10:59:09;;;;;;;2.40;1.88;;;13.90;42.30;;;;;;2250731;63;20388;-86
2022/04/01 11:01:43;;;;;;;2.17;1.98;;;13.90;42.60;;;;;;2250373;63;20346;-86
2022/04/01 11:04:12;;;;;;;2.72;1.98;;;13.90;42.40;;;;;;2250901;63;20407;-87
2022/04/01 11:06:51;;;;;;;2.00;1.80;;;14.00;42.40;;;;;;2250257;63;20244;-87
2022/04/01 11:09:50;;;;;;;2.42;2.10;;;14.00;42.60;;;;;;2243763;63;20208;-86
2022/04/01 11:12:19;;;;;;;2.38;1.80;;;14.00;42.30;;;;;;2250458;63;20208;-86
2022/04/01 11:14:55;;;;;;;1.95;1.73;;;14.00;42.40;;;;;;2250336;63;20228;-86
2022/04/01 11:17:34;;;;;;;1.77;1.60;;;14.00;42.50;;;;;;2250861;63;20293;-87
2022/04/01 11:20:03;;;;;;;2.50;1.95;;;14.10;42.40;;;;;;2242912;63;20219;-86
2022/04/01 11:22:54;;;;;;;1.57;1.47;;;14.10;42.20;;;;;;2250883;63;20258;-86
2022/04/01 11:25:23;;;;;;;1.67;1.45;;;14.10;42.30;;;;;;2243459;63;20385;-87
2022/04/01 11:28:02;;;;;;;1.85;1.58;;;14.10;42.30;;;;;;2250384;63;20224;-87
2022/04/01 11:30:30;;;;;;;3.40;1.33;;;14.20;42.40;;;;;;2250996;63;20726;-86
2022/04/01 11:33:02;;;;;;;2.90;1.67;;;14.20;42.10;;;;;;2250456;63;20213;-86
2022/04/01 11:35:39;;;;;;;2.65;1.50;;;14.20;42.10;;;;;;2250800;63;20291;-86
2022/04/01 11:38:13;;;;;;;2.03;1.50;;;14.20;42.10;;;;;;2250564;63;20250;-87
2022/04/01 11:40:41;;;;;;;1.77;1.35;;;14.20;42.20;;;;;;2250360;63;20224;-86
2022/04/01 11:43:12;;;;;;;1.40;1.30;;;14.30;42.00;;;;;;2250854;63;20231;-87
2022/04/01 11:45:45;;;;;;;1.60;1.20;;;14.40;42.10;;;;;;2250101;63;20241;-87
2022/04/01 11:48:16;;;;;;;1.73;1.50;;;14.40;41.90;;;;;;2251149;63;20749;-86
2022/04/01 11:50:47;;;;;;;1.27;1.17;;;14.40;42.10;;;;;;2250163;63;20196;-86
2022/04/01 11:53:24;;;;;;;1.75;1.30;;;14.40;42.00;;;;;;2244630;63;20260;-86
2022/04/01 11:55:51;;;;;;;1.60;1.50;;;14.50;42.10;;;;;;2252801;63;20298;-84
2022/04/01 11:58:17;;;;;;;1.58;1.33;;;14.50;42.00;;;;;;2244144;63;20230;-87
2022/04/01 12:00:43;;;;;;;1.40;1.25;;;14.50;42.00;;;;;;2254361;63;20380;-87
2022/04/01 12:03:09;;;;;;;2.58;1.23;;;14.60;41.90;;;;;;2247807;63;20236;-86
2022/04/01 12:05:41;;;;;;;0.95;0.95;;;14.60;41.70;;;;;;2249970;63;20944;-85
2022/04/01 12:10:56;;;;;;;1.40;1.08;;;14.60;41.80;;;;;;2253164;63;20702;-86
2022/04/01 12:13:23;;;;;;;0.90;0.85;;;14.60;41.60;;;;;;2254290;63;20761;-86
2022/04/01 12:15:52;;;;;;;1.08;0.93;;;14.60;41.70;;;;;;2256623;63;20657;-85
2022/04/01 12:18:23;;;;;;;1.23;1.00;;;14.60;41.50;;;;;;2259077;63;20219;-86
2022/04/01 12:20:51;;;;;;;1.65;1.25;;;14.60;41.70;;;;;;2258315;63;20292;-86
2022/04/01 12:23:19;;;;;;;1.50;1.20;;;14.60;41.60;;;;;;2258851;63;20199;-86
2022/04/01 12:25:49;;;;;;;1.10;0.82;;;14.60;41.50;;;;;;2257924;63;20349;-86
2022/04/01 12:28:18;;;;;;;0.98;0.88;;;14.70;41.70;;;;;;2258449;63;20506;-86
2022/04/01 12:30:46;;;;;;;0.80;0.80;;;14.70;41.80;;;;;;2258265;63;20704;-86
2022/04/01 12:33:20;;;;;;;1.98;1.15;;;14.70;41.70;;;;;;2257975;63;20296;-86
2022/04/01 12:36:01;;;;;;;0.70;0.70;;;14.70;41.80;;;;;;2257381;63;20243;-86
2022/04/01 12:38:31;;;;;;;1.42;0.80;;;14.70;41.50;;;;;;2251963;63;20224;-87
2022/04/01 12:41:19;;;;;;;0.95;0.85;;;14.80;41.70;;;;;;2259486;63;20743;-86
2022/04/01 12:43:47;;;;;;;1.20;1.10;;;14.80;41.50;;;;;;2243819;63;20674;-86
2022/04/01 12:46:17;;;;;;;1.58;1.13;;;14.70;41.30;;;;;;2243001;63;20353;-86
2022/04/01 12:48:46;;;;;;;1.38;0.90;;;14.80;41.50;;;;;;2243822;63;20304;-86
2022/04/01 12:51:30;;;;;;;1.13;0.98;;;14.80;41.60;;;;;;2243166;63;20220;-86
2022/04/01 12:54:03;;;;;;;0.80;0.75;;;14.80;41.30;;;;;;2248940;63;20733;-85
2022/04/01 12:56:36;;;;;;;0.77;0.70;;;14.80;41.30;;;;;;2258657;63;20750;-86
2022/04/01 12:59:04;;;;;;;1.00;0.90;;;14.80;41.40;;;;;;2257843;63;20245;-86
2022/04/01 13:01:31;;;;;;;1.13;0.90;;;14.80;41.30;;;;;;2258796;63;20338;-85
2022/04/01 13:03:58;;;;;;;0.98;0.90;;;14.80;41.40;;;;;;2257213;63;20286;-86
2022/04/01 13:06:25;;;;;;;0.90;0.90;;;14.80;41.60;;;;;;2258502;63;20371;-86
2022/04/01 13:09:07;;;;;;;1.52;0.80;;;14.90;41.50;;;;;;2257662;63;20230;-85
2022/04/01 13:11:43;;;;;;;0.90;0.80;;;14.90;41.30;;;;;;2258370;63;20249;-85
2022/04/01 13:14:18;;;;;;;0.85;0.80;;;14.90;41.10;;;;;;2259744;63;20225;-85